»·PEaware :: GTI1 KRNO-KBOI

GTI1 :: KRNO-KBOI

FLIGHT INFORMATION

Flight Status: Arrived
Operator:
Atlas Air
More flights by this operator :: More flights under this callsign
Pilot: Mitchell L. (19304)
Aircraft: Unknown
(B748)
More flights by this aircraft type
Origin: KRNO Reno/Tahoe Intl
United States
Destination: KBOI Boise Air Terminal/Gowen
United States
More flights between these airports :: More routes between these airports
Route: +FMG8 FMG NEERO SADYL3
File this flight plan on PilotEdge
Remarks:
Altitude:
(Current/Filed)
33,000ft
Speed:
(Current/Filed)
450kts
Departed: 20-Aug-18 01:38 PM
Arrived: 20-Aug-18 02:28 PM
Distance/Time
Traveled:
292nm/0:50
Distance/Time
To Go:
Arrived

Flight Plot

Page will automatically refresh every two minutes.

Flight plan parsing failed; only flown route is shown


Map Options




Map Legend


Flown Route
Filed Route
Departure Airport
Arrival Airport
Navaid (VOR, NDB)
Fix

Horizontal Profiles

Position Reports

Time Latitude Longitude Heading Altitude Ground
Speed
20-Aug-18 13:10 39.509543 -119.773357 321 4430ft 0kts
20-Aug-18 13:11 39.509543 -119.773357 321 4430ft 0kts
20-Aug-18 13:12 39.509543 -119.773357 321 4430ft 0kts
20-Aug-18 13:13 39.509543 -119.773357 321 4430ft 0kts
20-Aug-18 13:14 39.509543 -119.773357 321 4430ft 0kts
20-Aug-18 13:15 39.509543 -119.773357 321 4430ft 0kts
20-Aug-18 13:16 39.509543 -119.773357 321 4430ft 0kts
20-Aug-18 13:17 39.509543 -119.773357 321 4430ft 0kts
20-Aug-18 13:18 39.509543 -119.773357 321 4430ft 0kts
20-Aug-18 13:19 39.509543 -119.773357 321 4430ft 0kts
20-Aug-18 13:20 39.509543 -119.773357 321 4430ft 0kts
20-Aug-18 13:21 39.509543 -119.773357 321 4430ft 0kts
20-Aug-18 13:22 39.509543 -119.773357 321 4430ft 0kts
20-Aug-18 13:23 39.509543 -119.773357 321 4430ft 0kts
20-Aug-18 13:24 39.509543 -119.773357 321 4430ft 0kts
20-Aug-18 13:25 39.509543 -119.773357 321 4430ft 0kts
20-Aug-18 13:26 39.509543 -119.773357 321 4430ft 0kts
20-Aug-18 13:27 39.509543 -119.773357 321 4430ft 0kts
20-Aug-18 13:28 39.509542 -119.773356 321 4430ft 0kts
20-Aug-18 13:29 39.509172 -119.772982 328 4430ft 2kts
20-Aug-18 13:30 39.508601 -119.772773 17 4430ft 2kts
20-Aug-18 13:31 39.508448 -119.772851 27 4430ft 0kts
20-Aug-18 13:32 39.508448 -119.772851 27 4430ft 0kts
20-Aug-18 13:33 39.508448 -119.772851 27 4430ft 0kts
20-Aug-18 13:34 39.508448 -119.772851 27 4430ft 0kts
20-Aug-18 13:35 39.508448 -119.772851 27 4430ft 0kts
20-Aug-18 13:36 39.508936 -119.772296 69 4430ft 5kts
20-Aug-18 13:37 39.510683 -119.771474 0 4430ft 10kts
20-Aug-18 13:38 39.513728 -119.770106 88 4430ft 15kts
20-Aug-18 13:39 39.502341 -119.769223 180 4430ft 135kts
20-Aug-18 13:40 39.459347 -119.769082 180 5663ft 170kts
20-Aug-18 13:41 39.410761 -119.760716 132 7165ft 192kts
20-Aug-18 13:42 39.410728 -119.699438 21 8570ft 216kts
20-Aug-18 13:43 39.475390 -119.675932 12 10080ft 258kts
20-Aug-18 13:44 39.546175 -119.644971 23 12050ft 285kts
20-Aug-18 13:45 39.621419 -119.594762 25 13675ft 324kts
20-Aug-18 13:46 39.704690 -119.537494 24 15490ft 354kts
20-Aug-18 13:47 39.797391 -119.473539 24 17774ft 401kts
20-Aug-18 13:48 39.897956 -119.403786 23 20784ft 421kts
20-Aug-18 13:49 40.002302 -119.331040 24 23543ft 437kts
20-Aug-18 13:50 40.110306 -119.254282 23 25958ft 452kts
20-Aug-18 13:51 40.223165 -119.175566 22 27957ft 471kts
20-Aug-18 13:52 40.340321 -119.093554 22 29945ft 485kts
20-Aug-18 13:53 40.461011 -119.008385 22 31573ft 504kts
20-Aug-18 13:54 40.586707 -118.919323 22 32893ft 528kts
20-Aug-18 13:55 40.715202 -118.827554 22 33049ft 527kts
20-Aug-18 13:56 40.843831 -118.735436 22 33056ft 530kts
20-Aug-18 13:57 40.973044 -118.642591 22 33090ft 530kts
20-Aug-18 13:58 41.099888 -118.551030 22 33091ft 530kts
20-Aug-18 13:59 41.224569 -118.461266 21 33088ft 530kts
20-Aug-18 14:00 41.353798 -118.367595 21 33089ft 532kts
20-Aug-18 14:01 41.481199 -118.273295 22 33077ft 533kts
20-Aug-18 14:02 41.610774 -118.177158 22 33079ft 535kts
20-Aug-18 14:03 41.740691 -118.081512 22 33082ft 535kts
20-Aug-18 14:04 41.873820 -117.997124 8 33050ft 521kts
20-Aug-18 14:05 42.013449 -117.955201 2 33048ft 513kts
20-Aug-18 14:06 42.151999 -117.914233 5 33045ft 516kts
20-Aug-18 14:07 42.290467 -117.866837 6 32106ft 509kts
20-Aug-18 14:08 42.423568 -117.821002 6 30581ft 484kts
20-Aug-18 14:09 42.533034 -117.717921 55 29179ft 513kts
20-Aug-18 14:10 42.603368 -117.551779 54 27709ft 498kts
20-Aug-18 14:11 42.686106 -117.407303 45 25949ft 475kts
20-Aug-18 14:12 42.765432 -117.279604 48 23455ft 429kts
20-Aug-18 14:13 42.838497 -117.154787 49 20978ft 428kts
20-Aug-18 14:14 42.911666 -117.029629 49 18486ft 412kts
20-Aug-18 14:15 42.979814 -116.912978 49 15981ft 386kts
20-Aug-18 14:16 43.045488 -116.801143 49 13842ft 365kts
20-Aug-18 14:17 43.106882 -116.696955 48 12040ft 341kts
20-Aug-18 14:18 43.165053 -116.599876 48 10995ft 338kts
20-Aug-18 14:19 43.224666 -116.503647 46 9912ft 328kts
20-Aug-18 14:20 43.277375 -116.420485 44 8744ft 252kts
20-Aug-18 14:21 43.321170 -116.351330 44 7958ft 241kts
20-Aug-18 14:22 43.362668 -116.280699 50 7114ft 238kts
20-Aug-18 14:23 43.399583 -116.205159 52 6433ft 239kts
20-Aug-18 14:24 43.441476 -116.140502 24 5578ft 209kts
20-Aug-18 14:25 43.492193 -116.116611 359 4642ft 189kts
20-Aug-18 14:26 43.531811 -116.140014 307 3917ft 159kts
20-Aug-18 14:27 43.554378 -116.190893 295 3248ft 151kts
20-Aug-18 14:28 43.568261 -116.231012 296 2886ft 44kts
20-Aug-18 14:29 43.570892 -116.235433 109 2886ft 5kts
20-Aug-18 14:30 43.570028 -116.232803 117 2886ft 10kts
20-Aug-18 14:31 43.568265 -116.227663 115 2886ft 19kts
20-Aug-18 14:32 43.565274 -116.218972 115 2886ft 30kts
20-Aug-18 14:33 43.565516 -116.214074 359 2886ft 5kts
20-Aug-18 14:34 43.565619 -116.214076 358 2886ft 0kts
20-Aug-18 14:35 43.565619 -116.214076 358 2886ft 0kts

Navigation Log

Ident Type
Flight plan parsing failed, navigation log unavailable